Flight Track Log - Related Links

Times and Time Zones

All times are in EDT time to prevent confusion due to time zone crossing. See the UCA3596 flight status page for this flight to view local times or setup timezone preferences in your user account.

Time Position Orientation Groundspeed Altitude Reporting Facility
EDT Latitude Longitude Course Direction KTS MPH feet Rate Location/Type
Thu 04:29:54 PM 42.2203 -76.0519 189° South 260 299 3,900  Level New Center
Thu 04:30:54 PM 42.1733 -76.0789 203° Southwest 232 267 5,600 1,650 Climbing New Center
Thu 04:31:54 PM 42.1322 -76.1119 211° Southwest 177 204 7,200 1,550 Climbing New Center
Thu 04:32:54 PM 42.0931 -76.1478 214° Southwest 177 204 8,700 4,400 Climbing New Center
Thu 04:33:54 PM 42.0500 -76.1833 212° Southwest 177 204 16,000 1,400 Climbing New Center
Thu 04:34:54 PM 42.0044 -76.2217 212° Southwest 182 209 11,500 -1,600 Descending New Center
Thu 04:35:00 PM 41.1323 -76.4853 189° South  Level Estimated
Thu 04:35:54 PM 41.9675 -76.2519 211° Southwest 182 209 12,800  Level New Center
Thu 04:36:54 PM 41.9264 -76.2847 211° Southwest 182 209 14,100 1,300 Climbing New Center
Thu 04:37:54 PM 41.8789 -76.3228 211° Southwest 177 204 15,400 950 Climbing New Center
Thu 04:38:54 PM 41.8333 -76.3633 214° Southwest 182 209 16,000 300 Climbing New Center
Thu 04:39:54 PM 41.7833 -76.4067 213° Southwest 202 232 16,000 -50 Level New Center
Thu 04:40:54 PM 41.7314 -76.4467 210° Southwest 231 266 15,900 -50 Descending New Center
Thu 04:41:54 PM 41.6728 -76.5000 214° Southwest 241 277 15,900  Level New Center
Thu 04:42:54 PM 41.6164 -76.5450 211° Southwest 241 277 15,900  Level New Center
Thu 04:43:54 PM 41.5600 -76.5900 211° Southwest 241 277 15,900  Level New Center
Thu 04:44:54 PM 41.5122 -76.6331 214° Southwest 241 277 15,900  Level New Center
Thu 04:45:54 PM 41.4558 -76.6781 211° Southwest 241 277 15,900  Level New Center
Thu 04:46:54 PM 41.4011 -76.7258 213° Southwest 241 277 15,900  Level New Center
Thu 04:47:54 PM 41.3469 -76.7708 212° Southwest 241 277 15,900  Level New Center
Thu 04:48:54 PM 41.2811 -76.7925 194° South 241 277 15,900  Level New Center
Thu 04:49:54 PM 41.2161 -76.8006 185° South 241 277 15,900  Level New Center
Thu 04:50:54 PM 41.1508 -76.8139 189° South 246 283 15,900 50 Level New Center
Thu 04:51:54 PM 41.0856 -76.8275 189° South 241 277 16,000 50 Climbing New Center
Thu 04:52:54 PM 41.0203 -76.8408 189° South 241 277 16,000 -50 Level New Center
Thu 04:53:54 PM 40.9550 -76.8542 189° South 241 277 15,900 -350 Descending New Center
Thu 04:54:54 PM 40.8814 -76.8697 189° South 241 277 15,300 -900 Descending New Center
Thu 04:55:54 PM 40.8161 -76.8831 189° South 253 291 14,100 -1,300 Descending New Center
Thu 04:56:54 PM 40.7378 -76.9033 191° South 267 307 12,700 -1,050 Descending New Center
Thu 04:57:54 PM 40.6744 -76.9225 193° South 262 302 12,000 -300 Descending New Center
Thu 04:58:54 PM 40.6003 -76.9458 193° South 256 295 12,100  Climbing New Center
Thu 04:59:54 PM 40.5450 -76.9628 193° South 243 280 12,000 -100 Descending New Center
Thu 05:00:54 PM 40.4753 -76.9839 193° South 243 280 11,900  Descending New Center
Thu 05:01:54 PM 40.4181 -77.0006 193° South 243 280 12,000  Climbing New Center
Thu 05:02:54 PM 40.3481 -77.0242 194° South 243 280 11,900 -200 Descending New Center
Thu 05:03:54 PM 40.2931 -77.0408 193° South 243 280 11,600 -600 Descending New Center
Thu 05:04:54 PM 40.2186 -77.0642 193° South 243 280 10,700 -950 Descending New Center
Thu 05:05:54 PM 40.1489 -77.0822 191° South 248 285 9,700 -607 Descending New Center
Thu 05:07:42 PM 40.0333 -77.1167 193° South 244 281 9,000 -214 Descending Potomac TRACON
Thu 05:08:42 PM 39.9833 -77.1333 194° South 234 269 9,100  Climbing Potomac TRACON
Thu 05:09:42 PM 39.9167 -77.1500 191° South 228 262 9,000 -50 Descending Potomac TRACON
Thu 05:10:42 PM 39.8500 -77.1667 191° South 227 261 9,000 -400 Level Potomac TRACON
Thu 05:11:42 PM 39.8000 -77.2167 218° Southwest 239 275 8,200 -843 Descending Potomac TRACON
Thu 05:12:43 PM 39.7333 -77.2667 210° Southwest 240 276 7,300 -595 Descending Potomac TRACON
Thu 05:13:43 PM 39.6833 -77.3000 207° Southwest 235 270 7,000 -350 Descending Potomac TRACON
Thu 05:14:43 PM 39.6333 -77.3500 218° Southwest 217 250 6,600 -500 Descending Potomac TRACON
Thu 05:15:43 PM 39.5833 -77.3833 207° Southwest 232 267 6,000 -650 Descending Potomac TRACON
Thu 05:16:43 PM 39.5000 -77.4167 197° South 233 268 5,300 -650 Descending Potomac TRACON
Thu 05:17:43 PM 39.4500 -77.4333 194° South 215 247 4,700 -600 Descending Potomac TRACON
Thu 05:18:43 PM 39.3833 -77.4333 180° South 195 224 4,100 -350 Descending Potomac TRACON
Thu 05:19:43 PM 39.3333 -77.4333 180° South 193 222 4,000 -350 Descending Potomac TRACON
Thu 05:20:43 PM 39.2833 -77.4333 180° South 194 223 3,400 -500 Descending Potomac TRACON
Thu 05:21:43 PM 39.2333 -77.4333 180° South 186 214 3,000 -200 Descending Potomac TRACON
Thu 05:22:43 PM 39.1833 -77.4333 180° South 183 211 3,000  Level Potomac TRACON
Thu 05:23:43 PM 39.1333 -77.4333 180° South 167 192 3,000 -100 Level Potomac TRACON
Thu 05:24:43 PM 39.1000 -77.4333 180° South 141 162 2,800 -446 Descending Potomac TRACON
Thu 05:25:44 PM 39.0500 -77.4333 180° South 153 176 2,100 -744 Descending Potomac TRACON
Thu 05:26:44 PM 39.0167 -77.4333 180° South 141 162 1,300 -700 Descending Potomac TRACON
Thu 05:27:44 PM 38.9833 -77.4333 180° South 119 137 700 -600 Descending Potomac TRACON

Login

Don't have an account? Register now (free) for customized features, flight alerts, and more!